createdAt,value
2017-10-04T02:55:28.091Z,0.00
2017-10-04T02:56:26.291Z,0.00
2017-10-04T02:57:25.718Z,0.00
2017-10-04T09:07:54.144Z,45312.00
2017-10-04T09:13:12.126Z,69088.00
2017-10-04T09:14:12.829Z,31424.00
2017-10-04T09:15:12.483Z,34912.00
2017-10-04T09:16:12.434Z,26720.00
2017-10-04T09:17:12.937Z,29824.00
2017-10-04T09:18:11.867Z,29280.00
2017-10-04T09:21:22.230Z,22528.00
2017-10-04T09:22:11.102Z,66848.00
2017-10-04T09:23:10.136Z,68832.00
2017-10-04T09:24:11.100Z,53728.00
2017-10-04T09:25:11.589Z,20928.00
2017-10-04T09:26:11.090Z,17840.00
2017-10-04T09:27:11.092Z,16628.00
2017-10-04T09:28:09.985Z,20320.00
2017-10-04T09:29:10.497Z,48416.00
2017-10-04T09:30:10.612Z,54368.00
2017-10-04T09:31:09.902Z,36480.00
2017-10-04T09:32:10.387Z,32576.00
2017-10-04T09:33:10.365Z,26752.00
2017-10-04T09:34:10.339Z,35136.00
2017-10-04T09:35:09.643Z,88160.00
2017-10-04T09:36:09.530Z,32288.00
2017-10-04T09:37:09.351Z,30336.00
2017-10-04T09:38:09.250Z,62336.00
2017-10-04T09:39:09.325Z,34528.00
2017-10-04T09:40:19.407Z,27616.00
2017-10-04T09:42:04.855Z,48960.00
2017-10-04T09:43:04.409Z,32736.00
2017-10-04T09:44:57.338Z,57856.00
2017-10-04T09:45:57.295Z,63296.00
2017-10-04T09:46:57.327Z,87136.00
2017-10-04T09:47:57.828Z,52672.00
2017-10-04T09:48:57.322Z,37760.00
2017-10-04T09:49:56.825Z,37056.00
2017-10-04T09:50:56.235Z,37792.00
2017-10-04T09:51:56.856Z,38592.00
2017-10-04T09:52:56.686Z,68992.00
2017-10-04T09:53:56.683Z,35872.00
2017-10-04T09:54:56.858Z,31680.00
2017-10-04T09:55:56.608Z,48736.00
2017-10-04T09:56:56.016Z,42080.00
2017-10-04T09:57:56.518Z,43776.00
2017-10-04T09:58:55.901Z,55808.00
2017-10-04T09:59:57.339Z,49664.00
2017-10-04T10:00:55.934Z,31104.00
2017-10-04T10:01:56.804Z,29952.00
2017-10-04T10:02:57.342Z,31648.00
2017-10-04T10:03:56.850Z,35712.00
2017-10-04T10:04:56.356Z,36288.00
2017-10-04T10:05:56.306Z,43968.00
2017-10-04T10:06:56.266Z,43072.00
2017-10-04T10:07:56.227Z,44544.00
2017-10-04T10:08:56.833Z,79808.00
2017-10-04T10:09:56.337Z,43616.00
2017-10-04T10:10:56.346Z,38048.00
2017-10-04T10:11:56.307Z,39712.00
2017-10-04T10:12:55.541Z,40064.00
2017-10-04T10:13:55.440Z,32352.00
2017-10-04T10:14:55.481Z,30880.00
2017-10-04T10:15:56.809Z,30336.00
2017-10-04T10:16:56.334Z,31392.00
2017-10-04T10:17:55.839Z,35488.00
2017-10-04T10:18:56.911Z,30688.00
2017-10-04T10:19:55.310Z,27360.00
2017-10-04T10:20:56.307Z,27072.00
2017-10-04T10:21:56.301Z,25440.00
2017-10-04T10:22:55.852Z,24896.00
2017-10-04T10:23:55.834Z,22784.00
2017-10-04T10:24:55.587Z,20736.00
2017-10-04T10:25:55.829Z,23488.00
2017-10-04T10:26:56.353Z,28864.00
2017-10-04T10:27:56.638Z,28288.00
2017-10-04T10:28:55.803Z,27936.00
2017-10-04T10:29:55.871Z,26624.00
2017-10-04T10:30:54.941Z,25504.00
2017-10-04T10:31:55.750Z,26336.00
2017-10-04T10:32:56.457Z,27616.00
2017-10-04T10:33:55.386Z,30976.00
2017-10-04T10:34:54.822Z,26880.00
2017-10-04T10:35:54.755Z,23712.00
2017-10-04T10:36:54.769Z,22656.00
2017-10-04T10:37:55.333Z,24832.00
2017-10-04T10:38:54.672Z,29344.00
2017-10-04T10:39:55.186Z,33184.00
2017-10-04T10:40:55.275Z,32576.00
2017-10-04T10:41:54.568Z,43552.00
2017-10-04T10:42:55.093Z,40672.00
2017-10-04T10:43:55.818Z,32640.00
2017-10-04T10:44:54.458Z,38336.00
2017-10-04T10:45:54.399Z,46208.00
2017-10-04T10:46:54.299Z,85888.00
2017-10-04T10:47:55.281Z,59872.00
2017-10-04T10:48:55.328Z,44832.00
2017-10-04T10:49:54.838Z,60992.00
2017-10-04T10:50:54.806Z,65184.00
2017-10-04T10:51:54.859Z,44704.00
2017-10-04T10:52:54.741Z,50976.00
2017-10-04T10:53:54.205Z,45984.00
2017-10-04T10:54:54.163Z,65824.00
2017-10-04T10:55:54.869Z,65120.00
2017-10-04T10:56:54.848Z,47424.00
2017-10-04T10:57:54.069Z,69984.00
2017-10-04T10:58:54.554Z,51616.00
2017-10-04T10:59:54.859Z,87360.00
2017-10-04T11:00:54.877Z,58016.00
2017-10-04T11:01:54.984Z,47488.00
2017-10-04T11:02:54.864Z,111008.00
2017-10-04T11:03:54.868Z,106336.00
2017-10-04T11:04:54.358Z,56576.00
2017-10-04T11:05:54.382Z,93632.00
2017-10-04T11:06:54.337Z,57952.00
2017-10-04T11:07:54.759Z,77792.00
2017-10-04T11:08:54.217Z,67200.00
2017-10-04T11:09:54.160Z,47936.00
2017-10-04T11:10:54.080Z,39008.00
2017-10-04T11:11:54.177Z,34528.00
2017-10-04T11:12:53.571Z,36896.00
2017-10-04T11:13:54.080Z,40832.00
2017-10-04T11:14:54.077Z,40896.00
2017-10-04T11:15:54.066Z,37952.00
2017-10-04T11:16:54.338Z,34912.00
2017-10-04T11:17:53.960Z,31712.00
2017-10-04T11:18:53.972Z,31808.00
2017-10-04T11:19:53.934Z,38016.00
2017-10-04T11:20:54.381Z,31968.00
2017-10-04T11:21:54.850Z,26624.00
2017-10-04T11:22:54.312Z,30336.00
2017-10-04T11:23:54.864Z,41376.00
2017-10-04T11:24:53.789Z,52928.00
2017-10-04T11:25:53.751Z,100992.00
2017-10-04T11:26:53.872Z,96896.00
2017-10-04T11:27:53.666Z,46944.00
2017-10-04T11:28:54.173Z,58944.00
2017-10-04T11:29:53.087Z,44832.00
2017-10-04T11:30:53.870Z,55008.00
2017-10-04T11:31:52.973Z,32576.00
2017-10-04T11:32:53.500Z,28416.00
2017-10-04T11:33:53.872Z,27936.00
2017-10-04T11:34:52.959Z,29248.00
2017-10-04T11:35:53.393Z,29824.00
2017-10-04T11:36:53.848Z,31392.00
2017-10-04T11:37:53.352Z,39104.00
2017-10-04T11:38:53.335Z,46176.00
2017-10-04T11:39:53.326Z,53760.00
2017-10-04T11:40:53.403Z,50176.00
2017-10-04T11:41:53.242Z,49600.00
2017-10-04T11:42:52.730Z,45568.00
2017-10-04T11:43:52.378Z,46400.00
2017-10-04T11:44:52.161Z,41920.00
2017-10-04T11:45:52.125Z,47904.00
2017-10-04T11:46:52.102Z,40480.00
2017-10-04T11:47:52.073Z,40672.00
2017-10-04T11:48:52.041Z,39648.00
2017-10-04T11:49:51.990Z,37792.00
2017-10-04T11:50:51.972Z,29984.00
2017-10-04T11:51:51.946Z,32128.00
2017-10-04T11:52:51.909Z,33344.00
2017-10-04T11:53:51.875Z,36640.00
2017-10-04T11:54:51.867Z,32736.00
2017-10-04T11:55:51.809Z,31104.00
2017-10-04T11:56:51.784Z,35520.00
2017-10-04T11:57:51.737Z,28608.00
2017-10-04T11:58:51.737Z,30784.00
2017-10-04T11:59:51.693Z,26528.00
2017-10-04T12:00:51.646Z,32608.00
2017-10-04T12:01:51.626Z,27136.00
2017-10-04T12:02:51.570Z,38592.00
2017-10-04T12:03:51.551Z,29984.00
2017-10-04T12:04:51.491Z,28800.00
2017-10-04T12:05:51.459Z,33600.00
2017-10-04T12:06:51.425Z,33120.00
2017-10-04T12:07:51.410Z,34624.00
2017-10-04T12:08:51.365Z,34176.00
2017-10-04T12:09:51.348Z,33568.00
2017-10-04T12:10:51.294Z,33184.00
2017-10-04T12:11:51.314Z,31680.00
2017-10-04T12:12:51.226Z,28992.00
2017-10-04T12:13:51.215Z,27584.00
2017-10-04T12:14:51.205Z,29664.00
2017-10-04T12:15:51.176Z,35904.00
2017-10-04T12:16:51.093Z,38560.00
2017-10-04T12:17:51.090Z,39456.00
2017-10-04T12:18:51.042Z,37632.00
2017-10-04T12:19:51.002Z,36544.00
2017-10-04T12:20:50.957Z,36416.00
2017-10-04T12:21:50.929Z,35872.00
2017-10-04T12:22:50.904Z,35040.00
2017-10-04T12:23:50.889Z,34208.00
2017-10-04T12:24:50.828Z,33600.00
2017-10-04T12:25:50.839Z,33088.00
2017-10-04T12:26:50.773Z,33664.00
2017-10-04T12:27:50.720Z,34336.00
2017-10-04T12:28:50.696Z,35616.00
2017-10-04T12:29:50.660Z,34656.00
2017-10-04T12:30:50.649Z,33856.00
2017-10-04T12:31:50.600Z,33504.00
2017-10-04T12:32:50.613Z,32576.00
2017-10-04T12:33:50.621Z,32064.00
2017-10-04T12:34:50.492Z,31712.00
2017-10-04T12:35:50.478Z,31936.00
2017-10-04T12:36:50.573Z,32128.00
2017-10-04T12:37:50.430Z,33344.00
2017-10-04T12:38:50.348Z,33216.00
2017-10-04T12:39:50.315Z,33824.00
2017-10-04T12:40:50.281Z,33824.00
2017-10-04T12:41:50.282Z,33216.00
2017-10-04T12:42:50.211Z,32608.00
2017-10-04T12:43:50.212Z,31968.00
2017-10-04T12:44:50.173Z,31136.00
2017-10-04T12:45:50.139Z,30304.00
2017-10-04T12:46:50.136Z,29440.00
2017-10-04T12:47:50.049Z,28864.00
2017-10-04T12:48:50.061Z,28416.00
2017-10-04T12:49:49.975Z,28128.00
2017-10-04T12:50:49.948Z,27168.00
2017-10-04T12:51:49.919Z,26048.00
2017-10-04T12:52:49.878Z,26880.00
2017-10-04T12:53:49.890Z,28064.00
2017-10-04T12:54:49.820Z,29344.00
2017-10-04T12:55:49.865Z,30656.00
2017-10-04T12:56:49.763Z,33120.00
2017-10-04T12:57:49.726Z,33600.00
2017-10-04T12:58:49.694Z,34176.00
2017-10-04T12:59:49.644Z,32864.00
2017-10-04T13:00:49.610Z,33472.00
2017-10-04T13:01:49.594Z,32704.00
2017-10-04T13:02:49.557Z,32704.00
2017-10-04T13:03:49.535Z,32384.00
2017-10-04T13:04:49.480Z,30272.00
2017-10-04T13:05:49.458Z,30208.00
2017-10-04T13:06:49.438Z,27264.00
2017-10-04T13:07:49.379Z,27072.00
2017-10-04T13:08:49.346Z,26880.00
2017-10-04T13:09:49.314Z,26688.00
2017-10-04T13:10:49.268Z,26528.00
2017-10-04T13:11:49.265Z,26016.00
2017-10-04T13:12:49.225Z,25472.00
2017-10-04T13:13:49.196Z,24480.00
2017-10-04T13:14:49.153Z,24544.00
2017-10-04T13:15:49.165Z,24864.00
2017-10-04T13:16:49.112Z,25120.00
2017-10-04T13:17:49.041Z,25664.00
2017-10-04T13:18:49.024Z,25792.00
2017-10-04T13:19:48.974Z,24896.00
2017-10-04T13:20:48.939Z,24032.00
2017-10-04T13:21:48.909Z,23648.00
2017-10-04T13:22:48.876Z,24896.00
2017-10-04T13:23:48.871Z,26496.00
2017-10-04T13:24:48.798Z,24768.00
2017-10-04T13:25:48.778Z,25824.00
2017-10-04T13:26:48.734Z,27808.00
2017-10-04T13:27:48.717Z,43168.00
2017-10-04T13:28:48.683Z,30144.00
2017-10-04T13:29:48.755Z,26816.00
2017-10-04T13:30:48.629Z,25056.00
2017-10-04T13:31:48.617Z,24640.00
2017-10-04T13:32:48.536Z,24736.00
2017-10-04T13:33:48.497Z,23488.00
2017-10-04T13:34:48.470Z,23392.00
2017-10-04T13:35:48.481Z,23232.00
2017-10-04T13:36:48.462Z,23136.00
2017-10-04T13:37:48.368Z,23872.00
2017-10-04T13:38:48.329Z,24544.00
2017-10-04T13:39:48.305Z,24640.00
2017-10-04T13:40:48.264Z,24416.00
2017-10-04T13:41:48.225Z,23968.00
2017-10-04T13:42:48.213Z,22976.00
2017-10-04T13:43:48.158Z,22688.00
2017-10-04T13:44:48.138Z,22464.00
2017-10-04T13:45:48.145Z,21952.00
2017-10-04T13:46:48.084Z,21600.00
2017-10-04T13:47:48.066Z,21664.00
2017-10-04T13:48:47.995Z,21760.00
2017-10-04T13:49:47.980Z,21920.00
2017-10-04T13:50:47.917Z,22528.00
2017-10-04T13:51:47.893Z,23328.00
2017-10-04T13:52:47.854Z,23872.00
2017-10-04T13:53:47.878Z,24000.00
2017-10-04T13:54:47.782Z,23936.00
2017-10-04T13:55:47.747Z,23776.00
2017-10-04T13:56:47.756Z,24288.00
2017-10-04T13:57:47.709Z,24576.00
2017-10-04T13:58:47.652Z,24544.00
2017-10-04T13:59:47.606Z,24288.00
2017-10-04T14:00:47.585Z,24224.00
2017-10-04T14:01:47.583Z,24128.00
2017-10-04T14:02:47.517Z,23744.00
2017-10-04T14:03:47.506Z,22944.00
2017-10-04T14:04:47.447Z,22624.00
2017-10-04T14:05:47.414Z,22528.00
2017-10-04T14:06:47.374Z,22272.00
2017-10-04T14:07:47.357Z,22048.00
2017-10-04T14:08:47.308Z,21664.00
2017-10-04T14:09:47.272Z,21504.00
2017-10-04T14:10:47.262Z,21248.00
2017-10-04T14:11:47.209Z,20384.00
2017-10-04T14:12:47.154Z,19584.00
2017-10-04T14:13:47.143Z,18944.00
2017-10-04T14:14:47.100Z,18720.00
2017-10-04T14:15:47.057Z,19040.00
2017-10-04T14:16:47.025Z,19264.00
2017-10-04T14:17:46.985Z,19488.00
2017-10-04T14:18:46.958Z,19328.00
2017-10-04T14:19:46.966Z,18912.00
2017-10-04T14:20:46.888Z,18432.00
2017-10-04T14:21:46.851Z,18048.00
2017-10-04T14:22:46.818Z,17888.00
2017-10-04T14:23:46.786Z,17696.00
2017-10-04T14:24:46.769Z,17472.00
2017-10-04T14:25:46.717Z,16384.00
2017-10-04T14:26:46.679Z,15416.00
2017-10-04T14:27:46.657Z,15340.00
2017-10-04T14:28:46.630Z,15388.00
2017-10-04T14:29:46.582Z,15772.00
2017-10-04T14:31:07.288Z,16456.00
2017-10-04T14:31:46.992Z,17056.00
2017-10-04T14:32:46.954Z,17632.00
2017-10-04T14:33:47.404Z,17568.00
2017-10-04T14:34:49.925Z,17984.00
2017-10-04T14:35:47.394Z,18496.00
2017-10-04T14:36:46.727Z,18752.00
2017-10-04T14:37:47.317Z,18752.00
2017-10-04T14:38:46.727Z,18752.00
2017-10-04T14:39:46.671Z,18560.00
2017-10-04T14:40:46.620Z,18176.00
2017-10-04T14:41:47.186Z,17824.00
2017-10-04T14:42:46.600Z,17112.00
2017-10-04T14:43:47.029Z,16668.00
2017-10-04T14:44:47.059Z,16320.00
2017-10-04T14:45:46.462Z,16188.00
2017-10-04T14:46:46.430Z,16276.00
2017-10-04T14:47:46.425Z,16596.00
2017-10-04T14:48:46.959Z,16724.00
2017-10-04T14:49:46.820Z,16788.00
2017-10-04T14:50:46.335Z,16436.00
2017-10-04T14:51:46.809Z,15748.00
2017-10-04T14:52:46.647Z,15028.00
2017-10-04T14:53:46.617Z,14544.00
2017-10-04T14:54:46.910Z,14108.00
2017-10-04T14:55:46.046Z,13736.00
2017-10-04T14:56:46.621Z,13380.00
2017-10-04T14:57:46.018Z,12880.00
2017-10-04T14:58:46.050Z,12148.00
2017-10-04T14:59:45.966Z,11152.00
2017-10-04T15:00:45.765Z,10388.00
2017-10-04T15:01:45.448Z,9604.00
2017-10-04T15:02:45.435Z,8708.00
2017-10-04T15:03:45.401Z,7736.00
2017-10-04T15:04:45.384Z,7328.00
2017-10-04T15:05:45.312Z,7592.00
2017-10-04T15:06:45.283Z,8204.00
2017-10-04T15:07:45.287Z,8116.00
2017-10-04T15:08:45.277Z,7368.00
2017-10-04T15:09:45.170Z,6524.00
2017-10-04T15:10:45.181Z,5852.00
2017-10-04T15:11:45.109Z,5372.00
2017-10-04T15:12:45.067Z,5092.00
2017-10-04T15:13:45.068Z,4932.00
2017-10-04T15:14:44.982Z,4976.00
2017-10-04T15:15:44.952Z,4900.00
2017-10-04T15:16:44.911Z,4804.00
2017-10-04T15:17:44.911Z,4844.00
2017-10-04T15:18:44.839Z,5016.00
2017-10-04T15:19:44.829Z,5236.00
2017-10-04T15:20:44.766Z,5652.00
2017-10-04T15:21:44.780Z,6160.00
2017-10-04T15:22:44.703Z,6596.00
2017-10-04T15:23:44.707Z,6880.00
2017-10-04T15:24:44.631Z,7116.00
2017-10-04T15:25:44.596Z,7056.00
2017-10-04T15:26:44.557Z,6948.00
2017-10-04T15:27:44.524Z,6572.00
2017-10-04T15:28:44.481Z,5840.00
2017-10-04T15:29:44.474Z,4828.00
2017-10-04T15:30:44.415Z,3660.00
2017-10-04T15:31:44.381Z,2824.00
2017-10-04T15:32:44.408Z,2616.00
2017-10-04T15:33:44.749Z,2972.00
2017-10-04T15:34:44.269Z,3428.00
2017-10-04T15:35:44.247Z,3624.00
2017-10-04T15:36:44.191Z,3708.00
2017-10-04T15:37:44.161Z,4080.00
2017-10-04T15:38:44.131Z,4300.00
2017-10-04T15:39:44.095Z,4132.00
2017-10-04T15:40:44.064Z,3864.00
2017-10-04T15:41:44.015Z,3916.00
2017-10-04T15:42:43.986Z,3880.00
2017-10-04T15:43:43.973Z,3460.00
2017-10-04T15:44:43.940Z,3100.00
2017-10-04T15:45:43.909Z,2840.00
2017-10-04T15:46:43.857Z,2620.00
2017-10-04T15:47:43.845Z,2544.00
2017-10-04T15:48:43.822Z,2576.00
2017-10-04T15:49:43.771Z,2508.00
2017-10-04T15:50:43.684Z,2328.00
2017-10-04T15:51:43.666Z,2180.00
2017-10-04T15:52:43.644Z,2232.00
2017-10-04T15:53:43.574Z,2220.00
2017-10-04T15:54:43.569Z,2052.00
2017-10-04T15:55:43.538Z,1956.00
2017-10-04T15:56:43.470Z,1940.00
2017-10-04T15:57:43.448Z,1972.00
2017-10-04T15:58:43.403Z,2096.00
2017-10-04T15:59:43.357Z,2128.00
2017-10-04T16:00:43.319Z,2088.00
2017-10-04T16:01:43.297Z,2084.00
2017-10-04T16:02:43.243Z,2096.00
2017-10-04T16:03:43.219Z,2096.00
2017-10-04T16:04:43.171Z,2092.00
2017-10-04T16:05:43.202Z,2040.00
2017-10-04T16:06:43.107Z,2004.00
2017-10-04T16:07:43.057Z,1976.00
2017-10-04T16:08:43.024Z,1876.00
2017-10-04T16:09:42.981Z,1792.00
2017-10-04T16:10:42.947Z,1744.00
2017-10-04T16:11:42.909Z,1512.00
2017-10-04T16:12:42.877Z,1384.00
2017-10-04T16:13:53.475Z,1488.00
2017-10-04T16:14:43.995Z,1620.00
2017-10-04T16:15:43.759Z,1612.00
2017-10-04T16:16:43.985Z,1540.00
2017-10-04T16:17:43.163Z,1444.00
2017-10-04T16:18:43.955Z,1356.00
2017-10-04T16:19:44.526Z,1276.00
2017-10-04T16:20:43.016Z,1208.00
2017-10-04T16:21:43.453Z,1144.00
2017-10-04T16:22:44.002Z,1076.00
2017-10-04T16:23:42.908Z,1000.00
2017-10-04T16:24:43.460Z,924.00
2017-10-04T16:25:42.905Z,864.00
2017-10-04T16:26:42.863Z,800.00
2017-10-04T16:27:42.823Z,720.00
2017-10-04T16:28:43.529Z,636.00
2017-10-04T16:29:43.499Z,560.00
2017-10-04T16:30:42.417Z,504.00
2017-10-04T16:31:42.220Z,460.00
2017-10-04T16:32:42.246Z,436.00
2017-10-04T16:33:42.092Z,420.00
2017-10-04T16:34:42.053Z,412.00
2017-10-04T16:35:42.062Z,400.00
2017-10-04T16:36:42.018Z,376.00
2017-10-04T16:37:41.944Z,352.00
2017-10-04T16:38:41.912Z,316.00
2017-10-04T16:39:41.881Z,280.00
2017-10-04T16:40:41.844Z,248.00
2017-10-04T16:41:41.839Z,224.00
2017-10-04T16:42:41.768Z,208.00
2017-10-04T16:43:41.718Z,192.00
2017-10-04T16:44:41.676Z,180.00
2017-10-04T16:45:41.634Z,160.00
2017-10-04T16:46:41.616Z,148.00
2017-10-04T16:47:41.660Z,136.00
2017-10-04T16:48:41.526Z,120.00
2017-10-04T16:49:41.488Z,108.00
2017-10-04T16:50:41.454Z,96.00
2017-10-04T16:51:41.415Z,84.00
2017-10-04T16:52:41.370Z,76.00
2017-10-04T16:53:41.387Z,64.00
2017-10-04T16:54:41.305Z,56.00
2017-10-04T16:55:41.281Z,48.00
2017-10-04T16:56:41.274Z,44.00
2017-10-04T16:57:41.199Z,36.00
2017-10-04T16:58:41.150Z,28.00
2017-10-04T16:59:41.166Z,24.00
2017-10-04T17:00:41.093Z,16.00
2017-10-04T17:01:41.030Z,16.00
2017-10-04T17:02:41.035Z,12.00
2017-10-04T17:03:40.961Z,8.00
2017-10-04T17:04:40.929Z,4.00
2017-10-04T17:05:40.893Z,8.00
2017-10-04T17:06:40.850Z,4.00
2017-10-04T17:07:40.828Z,4.00
2017-10-04T17:08:40.768Z,4.00
2017-10-04T17:09:40.734Z,4.00
2017-10-04T17:10:40.692Z,4.00
2017-10-04T17:11:40.667Z,0.00
2017-10-04T17:12:40.640Z,0.00
2017-10-04T17:13:40.591Z,0.00
2017-10-04T17:14:40.594Z,0.00
2017-10-04T17:15:40.522Z,0.00
2017-10-04T17:16:40.476Z,0.00
2017-10-04T17:17:40.471Z,0.00
2017-10-04T17:18:40.412Z,0.00
2017-10-04T17:19:40.370Z,0.00
2017-10-04T17:20:40.334Z,0.00
2017-10-04T17:21:40.302Z,0.00
2017-10-04T17:22:40.240Z,0.00
2017-10-04T17:23:40.204Z,0.00
2017-10-04T17:24:40.162Z,0.00
2017-10-04T17:25:40.116Z,0.00
2017-10-04T17:26:40.085Z,0.00
2017-10-04T17:27:40.047Z,0.00
2017-10-04T17:28:40.017Z,0.00
2017-10-04T17:29:39.977Z,0.00
2017-10-04T17:30:39.933Z,0.00
2017-10-04T17:31:39.893Z,0.00
2017-10-04T17:32:39.874Z,0.00
2017-10-04T17:33:39.823Z,0.00
2017-10-04T17:34:39.780Z,0.00
2017-10-04T17:35:39.749Z,0.00
2017-10-04T17:36:39.699Z,0.00
2017-10-04T17:37:39.660Z,0.00
2017-10-04T17:38:39.627Z,0.00
2017-10-04T17:39:39.630Z,0.00
2017-10-04T17:40:39.560Z,0.00
2017-10-04T17:41:39.516Z,0.00
2017-10-04T17:42:39.481Z,0.00
2017-10-04T17:43:39.530Z,0.00
2017-10-04T17:44:39.404Z,0.00
2017-10-04T17:45:39.386Z,0.00
2017-10-04T17:46:39.367Z,0.00
2017-10-04T17:47:39.282Z,0.00
2017-10-04T17:48:39.249Z,0.00
2017-10-04T17:49:39.219Z,0.00
2017-10-04T17:50:39.184Z,0.00
2017-10-04T17:51:39.253Z,0.00
2017-10-04T17:52:39.108Z,0.00
2017-10-04T17:53:39.058Z,0.00
2017-10-04T17:54:39.085Z,0.00
2017-10-04T17:55:39.042Z,0.00
2017-10-04T17:56:39.053Z,0.00
2017-10-04T17:57:38.912Z,0.00
2017-10-04T17:58:38.878Z,0.00
2017-10-04T17:59:38.839Z,0.00
2017-10-04T18:00:38.894Z,0.00
2017-10-04T18:01:38.758Z,0.00
2017-10-04T18:02:38.744Z,0.00
2017-10-04T18:03:38.691Z,0.00
2017-10-04T18:04:38.660Z,0.00
2017-10-04T18:07:11.980Z,0.00
2017-10-04T18:08:10.964Z,0.00
2017-10-04T18:10:04.206Z,0.00
2017-10-04T18:11:03.553Z,0.00
2017-10-04T18:12:56.911Z,0.00
2017-10-04T18:13:56.565Z,0.00
2017-10-04T18:14:57.620Z,0.00
2017-10-04T18:15:56.507Z,0.00
2017-10-04T18:17:05.126Z,0.00
2017-10-04T18:18:50.232Z,0.00
2017-10-04T18:19:49.270Z,0.00
2017-10-04T18:21:42.582Z,0.00
2017-10-04T18:22:42.613Z,0.00
2017-10-04T18:24:35.018Z,0.00
2017-10-04T18:25:34.882Z,0.00
2017-10-04T18:27:28.460Z,0.00
2017-10-04T18:28:27.650Z,0.00
2017-10-04T18:30:21.036Z,0.00
2017-10-04T18:31:20.339Z,0.00
2017-10-04T18:33:13.342Z,0.00
2017-10-04T18:34:13.680Z,0.00
2017-10-04T18:36:06.645Z,0.00
2017-10-04T18:37:05.931Z,0.00
2017-10-04T18:38:59.350Z,0.00
2017-10-04T18:39:58.689Z,0.00
2017-10-04T18:41:52.575Z,0.00
2017-10-04T18:42:53.095Z,0.00
2017-10-04T18:44:45.316Z,0.00
2017-10-04T18:45:44.340Z,0.00
2017-10-04T18:47:37.808Z,0.00
2017-10-04T18:48:37.162Z,0.00
2017-10-04T18:50:30.705Z,0.00
2017-10-04T18:51:30.108Z,0.00
2017-10-04T18:53:23.234Z,0.00
2017-10-04T18:54:23.911Z,0.00
2017-10-04T18:56:16.758Z,0.00
2017-10-04T18:57:15.702Z,0.00
2017-10-04T18:59:10.011Z,0.00
2017-10-04T19:00:08.479Z,0.00
2017-10-04T19:02:01.266Z,0.00
2017-10-04T19:03:01.795Z,0.00
2017-10-04T19:04:54.738Z,0.00
2017-10-04T19:05:55.111Z,0.00
2017-10-04T19:07:47.113Z,0.00
2017-10-04T19:08:48.358Z,0.00
2017-10-04T19:10:40.300Z,0.00
2017-10-04T19:11:43.444Z,0.00
2017-10-04T19:12:41.199Z,0.00
2017-10-04T19:13:39.674Z,0.00
2017-10-04T19:14:39.480Z,0.00
2017-10-04T19:15:39.335Z,0.00
2017-10-04T19:16:39.501Z,0.00
2017-10-04T19:17:39.656Z,0.00
2017-10-04T19:18:40.707Z,0.00
2017-10-04T19:21:11.580Z,0.00
2017-10-04T19:22:11.337Z,0.00
2017-10-04T19:24:05.209Z,0.00
2017-10-04T19:25:06.217Z,0.00
2017-10-04T19:26:05.088Z,0.00
2017-10-04T19:27:04.575Z,0.00
2017-10-04T19:28:04.511Z,0.00
2017-10-04T19:29:04.927Z,0.00
2017-10-04T19:30:04.465Z,0.00
2017-10-04T19:31:04.293Z,0.00
2017-10-04T19:32:04.384Z,0.00
2017-10-04T19:33:04.346Z,0.00
2017-10-04T19:34:04.261Z,0.00
2017-10-04T19:35:04.133Z,0.00
2017-10-04T19:36:04.188Z,0.00
2017-10-04T19:37:04.606Z,0.00
2017-10-04T19:38:04.154Z,0.00
2017-10-04T19:39:04.609Z,0.00
2017-10-04T19:40:04.033Z,0.00
2017-10-04T19:41:03.988Z,0.00
2017-10-04T19:42:03.902Z,0.00
2017-10-04T19:43:03.970Z,0.00
2017-10-04T19:44:04.622Z,0.00
2017-10-04T19:45:03.853Z,0.00
2017-10-04T19:46:03.806Z,0.00
2017-10-04T19:47:03.487Z,0.00
2017-10-04T19:48:03.277Z,0.00
2017-10-04T19:49:03.218Z,0.00
2017-10-04T19:50:03.196Z,0.00
2017-10-04T19:51:03.142Z,0.00
2017-10-04T19:52:03.123Z,0.00
2017-10-04T19:53:03.080Z,0.00
2017-10-04T19:54:03.053Z,0.00
2017-10-04T19:55:03.053Z,0.00
2017-10-04T19:56:02.975Z,0.00
2017-10-04T19:57:02.925Z,0.00
2017-10-04T19:58:02.923Z,0.00
2017-10-04T19:59:02.847Z,0.00
2017-10-04T20:00:02.821Z,0.00
2017-10-04T20:01:02.804Z,0.00
2017-10-04T20:02:02.754Z,0.00
2017-10-04T20:03:02.691Z,0.00
2017-10-04T20:04:02.655Z,0.00
2017-10-04T20:05:02.658Z,0.00
2017-10-04T20:06:02.584Z,0.00
2017-10-04T20:07:02.534Z,0.00
2017-10-04T20:08:02.516Z,0.00
2017-10-04T20:09:02.463Z,0.00
2017-10-04T20:10:02.448Z,0.00
2017-10-04T20:11:02.414Z,0.00
2017-10-04T20:12:02.344Z,0.00
2017-10-04T20:13:02.308Z,0.00
2017-10-04T20:14:02.271Z,0.00
2017-10-04T20:15:02.223Z,0.00
2017-10-04T20:16:02.187Z,0.00
2017-10-04T20:17:02.147Z,0.00
2017-10-04T20:18:02.114Z,0.00
2017-10-04T20:19:02.066Z,0.00
2017-10-04T20:20:02.052Z,0.00
2017-10-04T20:21:02.010Z,0.00
2017-10-04T20:22:01.962Z,0.00
2017-10-04T20:23:01.947Z,0.00
2017-10-04T20:24:01.903Z,0.00
2017-10-04T20:25:01.836Z,0.00
2017-10-04T20:26:01.807Z,0.00
2017-10-04T20:27:01.778Z,0.00
2017-10-04T20:28:01.750Z,0.00
2017-10-04T20:29:01.711Z,0.00
2017-10-04T20:30:01.685Z,0.00
2017-10-04T20:31:01.633Z,0.00
2017-10-04T20:32:01.569Z,0.00
2017-10-04T20:33:01.532Z,0.00
2017-10-04T20:34:01.496Z,0.00
2017-10-04T20:35:01.520Z,0.00
2017-10-04T20:36:01.520Z,0.00
2017-10-04T20:37:01.388Z,0.00
2017-10-04T20:38:01.362Z,0.00
2017-10-04T20:39:01.324Z,0.00
2017-10-04T20:40:01.266Z,0.00
2017-10-04T20:41:01.230Z,0.00
2017-10-04T20:42:01.188Z,0.00
2017-10-04T20:43:01.144Z,0.00
2017-10-04T20:44:01.111Z,0.00
2017-10-04T20:45:01.068Z,0.00
2017-10-04T20:46:01.049Z,0.00
2017-10-04T20:47:00.994Z,0.00
2017-10-04T20:48:00.995Z,0.00
2017-10-04T20:49:00.913Z,0.00
2017-10-04T20:50:00.883Z,0.00
2017-10-04T20:51:00.863Z,0.00
2017-10-04T20:52:00.803Z,0.00
2017-10-04T20:53:00.759Z,0.00
2017-10-04T20:54:00.729Z,0.00
2017-10-04T20:55:00.682Z,0.00
2017-10-04T20:56:00.651Z,0.00
2017-10-04T20:57:00.633Z,0.00
2017-10-04T20:58:00.634Z,0.00
2017-10-04T20:59:00.538Z,0.00
2017-10-04T21:00:00.549Z,0.00
2017-10-04T21:01:00.452Z,0.00
2017-10-04T21:02:00.417Z,0.00
2017-10-04T21:03:00.434Z,0.00
2017-10-04T21:04:00.335Z,0.00
2017-10-04T21:05:00.306Z,0.00
2017-10-04T21:06:00.265Z,0.00
2017-10-04T21:07:00.228Z,0.00
2017-10-04T21:08:00.205Z,0.00
2017-10-04T21:09:00.208Z,0.00
2017-10-04T21:10:00.139Z,0.00
2017-10-04T21:11:00.139Z,0.00
2017-10-04T21:12:00.039Z,0.00
2017-10-04T21:13:00.040Z,0.00
2017-10-04T21:13:59.960Z,0.00
2017-10-04T21:14:59.916Z,0.00
2017-10-04T21:15:59.880Z,0.00
2017-10-04T21:16:59.844Z,0.00
2017-10-04T21:17:59.809Z,0.00
2017-10-04T21:18:59.767Z,0.00
2017-10-04T21:19:59.732Z,0.00
2017-10-04T21:20:59.694Z,0.00
2017-10-04T21:21:59.680Z,0.00
2017-10-04T21:22:59.614Z,0.00
2017-10-04T21:23:59.582Z,0.00
2017-10-04T21:24:59.550Z,0.00
2017-10-04T21:25:59.523Z,0.00
2017-10-04T21:26:59.464Z,0.00
2017-10-04T21:27:59.445Z,0.00
2017-10-04T21:28:59.418Z,0.00
2017-10-04T21:29:59.345Z,0.00
2017-10-04T21:30:59.324Z,0.00
2017-10-04T21:31:59.294Z,0.00
2017-10-04T21:32:59.234Z,0.00
2017-10-04T21:33:59.237Z,0.00
2017-10-04T21:34:59.169Z,0.00
2017-10-04T21:35:59.110Z,0.00
2017-10-04T21:36:59.087Z,0.00
2017-10-04T21:37:59.032Z,0.00
2017-10-04T21:38:59.034Z,0.00
2017-10-04T21:39:58.959Z,0.00
2017-10-04T21:40:58.954Z,0.00
2017-10-04T21:41:58.885Z,0.00
2017-10-04T21:42:58.842Z,0.00
2017-10-04T21:43:58.808Z,0.00
2017-10-04T21:44:58.764Z,0.00
2017-10-04T21:45:58.730Z,0.00
2017-10-04T21:46:58.730Z,0.00
2017-10-04T21:47:58.667Z,0.00
2017-10-04T21:48:58.619Z,0.00
2017-10-04T21:49:58.605Z,0.00
2017-10-04T21:50:58.537Z,0.00
2017-10-04T21:51:58.563Z,0.00
2017-10-04T21:52:58.519Z,0.00
2017-10-04T21:53:58.427Z,0.00
2017-10-04T21:54:58.421Z,0.00
2017-10-04T21:55:58.352Z,0.00